Time;durP1;ratioP1;P1;durP2;ratioP2;P2;SDS_P1;SDS_P2;PMS_P1;PMS_P2;Temp;Humidity;BMP_temperature;BMP_pressure;BME280_temperature;BME280_humidity;BME280_pressure;Samples;Min_cycle;Max_cycle;Signal;HPM_P1;HPM_P2
2022/05/25 00:00:54;;;;;;;;;;;;;;;29.72;22.39;100011.41;4413575;32;20033;-69
2022/05/25 00:03:19;;;;;;;;;;;;;;;29.05;23.13;100012.50;4416848;32;19957;-70
2022/05/25 00:05:45;;;;;;;;;;;;;;;29.02;23.06;99997.00;4404974;32;20280;-69
2022/05/25 00:08:13;;;;;;;;;;;;;;;28.96;23.33;99996.47;4416232;32;20001;-69
2022/05/25 00:10:39;;;;;;;;;;;;;;;28.90;23.41;99998.81;4414304;32;19968;-69
2022/05/25 00:13:04;;;;;;;;;;;;;;;29.09;23.09;100004.97;4415154;32;20412;-69
2022/05/25 00:15:30;;;;;;;;;;;;;;;29.22;22.86;100001.03;4417381;32;19993;-69
2022/05/25 00:17:56;;;;;;;;;;;;;;;29.29;22.91;99991.53;4399252;32;20079;-69
2022/05/25 00:20:22;;;;;;;;;;;;;;;29.47;22.56;99985.25;4417315;32;20008;-69
2022/05/25 00:22:49;;;;;;;;;;;;;;;29.68;22.26;99987.84;4399553;32;19957;-69
2022/05/25 00:25:20;;;;;;;;;;;;;;;29.49;22.71;99981.75;4415535;32;20036;-69
2022/05/25 00:27:47;;;;;;;;;;;;;;;30.06;22.13;99994.16;4414233;32;21188;-70
2022/05/25 00:30:13;;;;;;;;;;;;;;;30.23;22.01;99991.31;4417280;32;20002;-70
2022/05/25 00:32:40;;;;;;;;;;;;;;;30.16;21.93;99995.78;4415596;32;20628;-70
2022/05/25 00:35:06;;;;;;;;;;;;;;;30.23;21.87;99997.91;4416919;32;19977;-70
2022/05/25 00:37:31;;;;;;;;;;;;;;;30.04;22.25;99999.78;4415589;32;19997;-70
2022/05/25 00:39:57;;;;;;;;;;;;;;;30.15;22.13;100002.19;4416675;32;19994;-70
2022/05/25 00:42:24;;;;;;;;;;;;;;;29.93;22.37;99988.63;4415469;32;19973;-70
2022/05/25 00:44:49;;;;;;;;;;;;;;;30.31;22.00;99983.34;4414748;32;19992;-70
2022/05/25 00:47:19;;;;;;;;;;;;;;;29.99;22.32;99989.16;4414944;32;20432;-70
2022/05/25 00:49:45;;;;;;;;;;;;;;;29.76;22.52;99974.81;4418388;32;19997;-70
2022/05/25 00:52:13;;;;;;;;;;;;;;;29.97;22.44;99977.41;4415973;32;20364;-70
2022/05/25 00:57:16;;;;;;;;;;;;;;;29.88;22.99;99975.16;3967078;31;15742402;-68
2022/05/25 01:00:03;;;;;;;;;;;;;;;29.88;22.99;99975.16;4440610;32;19969;-68
2022/05/25 01:02:30;;;;;;;;;;;;;;;28.87;23.89;99965.97;4443268;32;20346;-69
2022/05/25 01:04:55;;;;;;;;;;;;;;;29.09;23.67;99970.19;4441714;32;19941;-68
2022/05/25 01:07:41;;;;;;;;;;;;;;;29.42;23.21;99976.78;4439420;32;19993;-69
2022/05/25 01:13:03;;;;;;;;;;;;;;;29.59;23.43;99951.53;3951767;32;15723818;-68
2022/05/25 01:23:36;;;;;;;;;;;;;;;29.18;24.15;99937.69;3951623;32;15722574;-69
2022/05/25 01:28:58;;;;;;;;;;;;;;;28.87;24.55;99937.00;3952321;32;15724573;-69
2022/05/25 01:31:29;;;;;;;;;;;;;;;28.68;24.73;99945.38;4427252;32;20000;-69
2022/05/25 01:33:57;;;;;;;;;;;;;;;28.13;25.34;99935.06;4432297;32;20477;-69
2022/05/25 01:39:04;;;;;;;;;;;;;;;28.17;25.72;99932.56;3951676;32;15722484;-69
2022/05/25 01:41:35;;;;;;;;;;;;;;;28.17;25.72;99932.56;4426766;32;20020;-69
2022/05/25 01:44:06;;;;;;;;;;;;;;;28.18;25.68;99929.09;4424159;32;19957;-69
2022/05/25 01:46:34;;;;;;;;;;;;;;;28.40;25.26;99934.06;4428823;32;20010;-69
2022/05/25 01:49:03;;;;;;;;;;;;;;;28.51;25.18;99930.78;4431474;32;19957;-69
2022/05/25 01:51:32;;;;;;;;;;;;;;;28.78;25.02;99946.31;4426216;32;20009;-69
2022/05/25 01:54:00;;;;;;;;;;;;;;;28.51;25.21;99930.78;4428069;32;20402;-70
2022/05/25 01:56:28;;;;;;;;;;;;;;;29.10;24.48;99928.25;4422901;32;19976;-70
2022/05/25 01:58:56;;;;;;;;;;;;;;;28.65;24.93;99926.28;4430517;32;20391;-69
2022/05/25 02:01:22;;;;;;;;;;;;;;;28.79;25.00;99924.72;4432604;32;20056;-69
2022/05/25 02:09:15;;;;;;;;;;;;;;;28.80;25.20;99920.44;3950593;32;15725145;-69
2022/05/25 02:11:43;;;;;;;;;;;;;;;28.80;25.20;99920.44;4428218;32;20026;-70
2022/05/25 02:14:17;;;;;;;;;;;;;;;28.33;25.55;99905.12;4425194;32;20398;-69
2022/05/25 02:22:06;;;;;;;;;;;;;;;27.80;26.07;99896.50;3955282;32;15722432;-69
2022/05/25 02:24:38;;;;;;;;;;;;;;;27.80;26.07;99896.50;4429961;32;21096;-69
2022/05/25 02:27:09;;;;;;;;;;;;;;;28.16;25.65;99899.19;4428752;32;20354;-69
2022/05/25 02:29:36;;;;;;;;;;;;;;;28.50;25.26;99905.31;4433547;32;20012;-69
2022/05/25 02:32:05;;;;;;;;;;;;;;;28.36;25.48;99903.97;4436634;32;20372;-69
2022/05/25 02:34:32;;;;;;;;;;;;;;;28.06;25.71;99906.91;4435685;32;20410;-69
2022/05/25 02:36:58;;;;;;;;;;;;;;;27.56;26.41;99904.97;4435226;32;19961;-69
2022/05/25 02:39:25;;;;;;;;;;;;;;;27.72;26.40;99895.72;4433349;32;20004;-70
2022/05/25 02:41:52;;;;;;;;;;;;;;;27.78;26.17;99907.88;4436003;32;19985;-68
2022/05/25 02:44:17;;;;;;;;;;;;;;;27.73;26.32;99899.41;4433674;32;19992;-69
2022/05/25 02:46:43;;;;;;;;;;;;;;;27.40;26.66;99907.06;4433758;32;19986;-69
2022/05/25 02:49:09;;;;;;;;;;;;;;;27.76;26.35;99915.59;4434212;32;20515;-69
2022/05/25 02:51:35;;;;;;;;;;;;;;;27.69;26.42;99902.66;4435161;32;19997;-68
2022/05/25 02:54:01;;;;;;;;;;;;;;;27.82;26.19;99905.34;4434385;32;19973;-69
2022/05/25 02:56:29;;;;;;;;;;;;;;;27.77;26.15;99909.22;4434131;32;20037;-69
2022/05/25 02:58:54;;;;;;;;;;;;;;;28.34;25.57;99900.88;4435720;32;20011;-69
2022/05/25 03:01:20;;;;;;;;;;;;;;;28.21;25.67;99901.87;4431251;32;19962;-69
2022/05/25 03:03:46;;;;;;;;;;;;;;;28.67;25.14;99912.00;4434445;32;19997;-69
2022/05/25 03:06:11;;;;;;;;;;;;;;;28.33;25.31;99908.81;4432736;32;20008;-69
2022/05/25 03:08:38;;;;;;;;;;;;;;;28.85;24.78;99907.88;4435098;32;20008;-69
2022/05/25 03:11:04;;;;;;;;;;;;;;;27.88;25.82;99911.75;4433288;32;21069;-68
2022/05/25 03:13:30;;;;;;;;;;;;;;;28.78;24.83;99907.91;4434226;32;20045;-69
2022/05/25 03:15:57;;;;;;;;;;;;;;;29.06;24.50;99901.81;4435009;32;19957;-68
2022/05/25 03:18:23;;;;;;;;;;;;;;;28.99;24.65;99909.16;4433315;32;20028;-68
2022/05/25 03:20:49;;;;;;;;;;;;;;;28.68;24.96;99907.75;4433162;32;19961;-70
2022/05/25 03:23:17;;;;;;;;;;;;;;;29.30;24.17;99906.12;4433480;32;19972;-69
2022/05/25 03:25:43;;;;;;;;;;;;;;;28.41;25.24;99894.31;4436273;32;20000;-69
2022/05/25 03:28:09;;;;;;;;;;;;;;;28.59;25.07;99898.91;4433593;32;19965;-69
2022/05/25 03:30:34;;;;;;;;;;;;;;;28.50;25.13;99902.44;4435903;32;19965;-68
2022/05/25 03:33:00;;;;;;;;;;;;;;;28.47;25.15;99892.75;4424662;32;20032;-69
2022/05/25 03:35:26;;;;;;;;;;;;;;;28.30;25.39;99883.12;4423050;32;20000;-68
2022/05/25 03:37:51;;;;;;;;;;;;;;;28.91;24.81;99891.06;4422014;32;20016;-69
2022/05/25 03:40:17;;;;;;;;;;;;;;;28.47;25.23;99898.56;4422510;32;20016;-70
2022/05/25 03:42:44;;;;;;;;;;;;;;;28.42;25.34;99893.72;4423803;32;20001;-69
2022/05/25 03:45:10;;;;;;;;;;;;;;;28.89;24.79;99890.09;4425656;32;19976;-68
2022/05/25 03:47:36;;;;;;;;;;;;;;;28.50;25.06;99879.28;4415390;32;19988;-70
2022/05/25 03:50:02;;;;;;;;;;;;;;;28.78;24.89;99887.66;4424229;32;20029;-68
2022/05/25 03:52:28;;;;;;;;;;;;;;;28.84;24.74;99896.88;4422129;32;20327;-69
2022/05/25 03:54:53;;;;;;;;;;;;;;;28.45;25.31;99894.69;4423449;32;20652;-68
2022/05/25 03:57:19;;;;;;;;;;;;;;;28.90;24.88;99898.19;4424477;32;20404;-70
2022/05/25 03:59:46;;;;;;;;;;;;;;;28.99;24.78;99900.47;4423334;32;19992;-69
2022/05/25 04:02:12;;;;;;;;;;;;;;;28.11;25.87;99882.81;4424355;32;20004;-69
2022/05/25 04:04:37;;;;;;;;;;;;;;;28.53;25.36;99872.31;4423604;32;19989;-69
2022/05/25 04:07:03;;;;;;;;;;;;;;;28.19;25.87;99881.44;4421834;32;20355;-69
2022/05/25 04:09:28;;;;;;;;;;;;;;;28.54;25.38;99871.72;4422701;32;20324;-69
2022/05/25 04:11:54;;;;;;;;;;;;;;;28.69;25.37;99877.44;4423451;32;19957;-69
2022/05/25 04:14:19;;;;;;;;;;;;;;;28.10;26.14;99887.81;4421606;32;19997;-69
2022/05/25 04:16:45;;;;;;;;;;;;;;;28.92;25.16;99886.78;4423378;32;19989;-69
2022/05/25 04:19:11;;;;;;;;;;;;;;;28.88;25.20;99874.06;4422740;32;20016;-68
2022/05/25 04:21:37;;;;;;;;;;;;;;;28.91;25.24;99878.69;4422603;32;20002;-69
2022/05/25 04:24:03;;;;;;;;;;;;;;;28.35;26.02;99865.56;4422805;32;19973;-68
2022/05/25 04:26:30;;;;;;;;;;;;;;;28.70;25.73;99872.41;4422160;32;20316;-68
2022/05/25 04:28:56;;;;;;;;;;;;;;;28.86;25.31;99870.97;4423950;32;19972;-68
2022/05/25 04:31:21;;;;;;;;;;;;;;;28.65;25.76;99870.50;4425070;32;20007;-68
2022/05/25 04:33:47;;;;;;;;;;;;;;;28.40;26.24;99876.16;4422625;32;19992;-68
2022/05/25 04:36:13;;;;;;;;;;;;;;;28.07;26.73;99877.41;4425669;32;19973;-69
2022/05/25 04:38:38;;;;;;;;;;;;;;;28.36;26.37;99866.34;4421095;32;19953;-68
2022/05/25 04:41:04;;;;;;;;;;;;;;;28.28;26.71;99871.37;4420341;32;19949;-69
2022/05/25 04:43:29;;;;;;;;;;;;;;;29.08;25.56;99864.31;4421058;32;19953;-69
2022/05/25 04:45:55;;;;;;;;;;;;;;;28.71;26.12;99859.47;4421767;32;20052;-69
2022/05/25 04:48:23;;;;;;;;;;;;;;;28.79;26.22;99861.00;4423957;32;19987;-68
2022/05/25 04:50:49;;;;;;;;;;;;;;;28.71;26.37;99866.03;4423648;32;19949;-68
2022/05/25 04:53:17;;;;;;;;;;;;;;;28.81;26.26;99866.19;4421871;32;20374;-68
2022/05/25 04:58:33;;;;;;;;;;;;;;;29.10;25.92;99860.84;4423629;32;19953;-68
2022/05/25 05:00:59;;;;;;;;;;;;;;;28.48;26.64;99853.78;4422439;32;19964;-68
2022/05/25 05:03:25;;;;;;;;;;;;;;;29.48;25.56;99859.22;4419989;32;20444;-68
2022/05/25 05:05:51;;;;;;;;;;;;;;;28.81;26.53;99864.06;4421429;32;19961;-69
2022/05/25 05:08:17;;;;;;;;;;;;;;;28.65;26.61;99865.50;4423028;32;20343;-69
2022/05/25 05:10:43;;;;;;;;;;;;;;;29.45;25.63;99859.66;4422210;32;19995;-69
2022/05/25 05:13:08;;;;;;;;;;;;;;;29.48;25.67;99870.06;4421534;32;19992;-69
2022/05/25 05:15:35;;;;;;;;;;;;;;;29.23;26.12;99866.38;4421288;32;20341;-68
2022/05/25 05:18:00;;;;;;;;;;;;;;;29.05;26.39;99870.53;4422627;32;19953;-69
2022/05/25 05:20:26;;;;;;;;;;;;;;;29.17;26.29;99865.84;4420594;32;19990;-69
2022/05/25 05:22:51;;;;;;;;;;;;;;;28.29;27.56;99865.00;4421308;32;19988;-69
2022/05/25 05:25:17;;;;;;;;;;;;;;;28.61;27.07;99861.44;4413670;32;20036;-69
2022/05/25 05:27:45;;;;;;;;;;;;;;;29.00;26.72;99852.75;4423250;32;19980;-69
2022/05/25 05:30:12;;;;;;;;;;;;;;;28.15;27.72;99849.22;4422625;32;19973;-69
2022/05/25 05:32:38;;;;;;;;;;;;;;;28.21;27.79;99855.59;4423205;32;19997;-69
2022/05/25 05:35:05;;;;;;;;;;;;;;;28.59;27.22;99852.59;4421451;32;20425;-69
2022/05/25 05:37:34;;;;;;;;;;;;;;;28.40;27.55;99855.13;4422789;32;20272;-69
2022/05/25 05:40:01;;;;;;;;;;;;;;;28.31;27.62;99841.25;4413998;32;19964;-69
2022/05/25 05:42:27;;;;;;;;;;;;;;;28.87;27.15;99849.37;4420491;32;20719;-69
2022/05/25 05:44:59;;;;;;;;;;;;;;;29.71;26.02;99845.34;4422068;32;20005;-69
2022/05/25 05:47:27;;;;;;;;;;;;;;;29.32;26.61;99851.25;4420275;32;20057;-69
2022/05/25 05:49:53;;;;;;;;;;;;;;;29.26;26.78;99856.50;4422565;32;19968;-70
2022/05/25 05:52:19;;;;;;;;;;;;;;;29.94;25.91;99857.47;4420653;32;20048;-70
2022/05/25 05:54:44;;;;;;;;;;;;;;;29.25;26.75;99855.72;4423100;32;20003;-70
2022/05/25 05:57:11;;;;;;;;;;;;;;;28.68;27.55;99844.06;4422153;32;19954;-70
2022/05/25 05:59:38;;;;;;;;;;;;;;;29.27;26.69;99840.66;4421256;32;20004;-70
2022/05/25 06:02:04;;;;;;;;;;;;;;;29.26;26.56;99851.47;4421279;32;20026;-70
2022/05/25 06:04:29;;;;;;;;;;;;;;;28.50;27.72;99844.53;4420988;32;19960;-70
2022/05/25 06:06:55;;;;;;;;;;;;;;;28.96;27.10;99848.75;4421704;32;19993;-70
2022/05/25 06:09:21;;;;;;;;;;;;;;;29.22;26.73;99856.91;4422344;32;21196;-70
2022/05/25 06:11:47;;;;;;;;;;;;;;;29.42;26.25;99835.50;4419616;32;19996;-69
2022/05/25 06:14:13;;;;;;;;;;;;;;;29.45;26.28;99833.56;4422536;32;20512;-70
2022/05/25 06:19:27;;;;;;;;;;;;;;;30.03;25.70;99833.59;4423315;32;19949;-69
2022/05/25 06:22:01;;;;;;;;;;;;;;;30.23;25.16;99843.28;4419660;32;21430;-69
2022/05/25 06:24:27;;;;;;;;;;;;;;;29.78;25.76;99849.50;4419155;32;20022;-69
2022/05/25 06:26:52;;;;;;;;;;;;;;;30.10;25.46;99840.72;4420707;32;19953;-69
2022/05/25 06:29:19;;;;;;;;;;;;;;;30.12;25.32;99832.16;4421523;32;20531;-69
2022/05/25 06:31:44;;;;;;;;;;;;;;;31.02;24.22;99830.31;4416551;32;20347;-69
2022/05/25 06:34:10;;;;;;;;;;;;;;;30.20;25.04;99824.94;4418177;32;20163;-69
2022/05/25 06:36:36;;;;;;;;;;;;;;;29.59;25.53;99838.44;4419224;32;20237;-69
2022/05/25 06:39:02;;;;;;;;;;;;;;;30.41;24.73;99839.03;4416963;32;20019;-69
2022/05/25 06:41:28;;;;;;;;;;;;;;;29.89;25.25;99834.53;4408460;32;20395;-69
2022/05/25 06:43:53;;;;;;;;;;;;;;;30.59;24.51;99841.31;4408360;32;19953;-69
2022/05/25 06:46:20;;;;;;;;;;;;;;;30.24;24.67;99831.09;4410251;32;20062;-69
2022/05/25 06:48:46;;;;;;;;;;;;;;;29.47;25.47;99837.41;4404459;32;19997;-69
2022/05/25 06:51:15;;;;;;;;;;;;;;;29.92;25.14;99825.41;4402904;32;21311;-69
2022/05/25 06:53:41;;;;;;;;;;;;;;;29.79;25.10;99822.06;4410472;32;19994;-70
2022/05/25 06:56:07;;;;;;;;;;;;;;;29.52;25.60;99818.22;4408880;32;20590;-70
2022/05/25 06:58:33;;;;;;;;;;;;;;;30.25;24.79;99823.16;4406696;32;20079;-70
2022/05/25 07:00:58;;;;;;;;;;;;;;;30.60;24.22;99824.66;4401450;32;20177;-69
2022/05/25 07:03:23;;;;;;;;;;;;;;;31.15;23.57;99824.88;4404121;32;20080;-69
2022/05/25 07:05:49;;;;;;;;;;;;;;;31.27;23.50;99820.03;4405098;32;19999;-69
2022/05/25 07:08:14;;;;;;;;;;;;;;;31.12;23.55;99826.09;4409454;32;20228;-68
2022/05/25 07:10:45;;;;;;;;;;;;;;;31.49;22.89;99804.38;4411480;32;20386;-68
2022/05/25 07:13:15;;;;;;;;;;;;;;;32.02;22.34;99838.38;4406012;32;19996;-68
2022/05/25 07:15:40;;;;;;;;;;;;;;;31.48;22.97;99819.53;4403708;32;20064;-68
2022/05/25 07:18:06;;;;;;;;;;;;;;;31.84;22.53;99825.34;4410327;32;20539;-68
2022/05/25 07:20:32;;;;;;;;;;;;;;;31.25;23.15;99816.97;4406326;32;19981;-68
2022/05/25 07:22:59;;;;;;;;;;;;;;;31.32;23.10;99813.19;4409010;32;20351;-69
2022/05/25 07:25:25;;;;;;;;;;;;;;;30.98;23.42;99836.53;4410480;32;19997;-69
2022/05/25 07:27:51;;;;;;;;;;;;;;;32.34;22.08;99815.44;4411839;32;19975;-69
2022/05/25 07:30:17;;;;;;;;;;;;;;;32.48;21.79;99798.28;4405814;32;20012;-70
2022/05/25 07:32:42;;;;;;;;;;;;;;;32.41;21.86;99811.63;4406082;32;20033;-70
2022/05/25 07:35:09;;;;;;;;;;;;;;;32.30;22.06;99809.28;4411389;32;19993;-71
2022/05/25 07:37:38;;;;;;;;;;;;;;;32.49;21.91;99808.56;4411679;32;20000;-70
2022/05/25 07:40:06;;;;;;;;;;;;;;;33.45;21.08;99798.22;4412756;32;20017;-69
2022/05/25 07:42:33;;;;;;;;;;;;;;;32.70;21.75;99814.50;4412099;32;19983;-69
2022/05/25 07:44:59;;;;;;;;;;;;;;;31.62;22.98;99794.47;4410660;32;20507;-68
2022/05/25 07:47:26;;;;;;;;;;;;;;;31.15;23.61;99786.31;4409766;32;19999;-68
2022/05/25 07:49:52;;;;;;;;;;;;;;;33.14;21.53;99785.72;4411076;32;20020;-68
2022/05/25 07:52:18;;;;;;;;;;;;;;;32.11;22.71;99783.09;4406504;32;20504;-69
2022/05/25 07:54:44;;;;;;;;;;;;;;;31.10;23.91;99782.31;4408552;32;20319;-69
2022/05/25 07:57:10;;;;;;;;;;;;;;;30.98;24.47;99778.44;4409175;32;19985;-68
2022/05/25 07:59:36;;;;;;;;;;;;;;;31.65;23.66;99773.66;4411234;32;20340;-70
2022/05/25 08:07:38;;;;;;;;;;;;;;;30.91;24.48;99770.59;4409911;32;20385;-69
2022/05/25 08:10:06;;;;;;;;;;;;;;;30.15;25.54;99767.88;4408115;32;19997;-69
2022/05/25 08:12:34;;;;;;;;;;;;;;;30.38;25.27;99762.63;4406977;32;20354;-69
2022/05/25 08:15:00;;;;;;;;;;;;;;;31.50;23.98;99758.63;4410193;32;19961;-69
2022/05/25 08:17:28;;;;;;;;;;;;;;;30.84;24.81;99768.59;4409621;32;19981;-69
2022/05/25 08:19:53;;;;;;;;;;;;;;;30.76;24.92;99768.69;4411221;32;21498;-69
2022/05/25 08:22:19;;;;;;;;;;;;;;;30.09;25.65;99764.47;4409719;32;19991;-69
2022/05/25 08:24:44;;;;;;;;;;;;;;;30.95;24.69;99753.47;4410673;32;19988;-69
2022/05/25 08:27:11;;;;;;;;;;;;;;;29.75;26.06;99781.88;4410325;32;20016;-70
2022/05/25 08:29:37;;;;;;;;;;;;;;;30.10;25.95;99760.19;4415640;32;19981;-70
2022/05/25 08:32:03;;;;;;;;;;;;;;;29.03;27.19;99787.84;4413069;32;19993;-69
2022/05/25 08:34:29;;;;;;;;;;;;;;;29.51;26.87;99761.59;4411485;32;20012;-69
2022/05/25 08:36:54;;;;;;;;;;;;;;;29.72;26.52;99764.87;4411150;32;19965;-70
2022/05/25 08:39:20;;;;;;;;;;;;;;;29.54;26.71;99766.97;4411321;32;19994;-69
2022/05/25 08:41:48;;;;;;;;;;;;;;;29.29;27.15;99745.94;4411297;32;20279;-69
2022/05/25 08:44:14;;;;;;;;;;;;;;;29.11;27.27;99758.84;4410264;32;20314;-69
2022/05/25 08:46:40;;;;;;;;;;;;;;;30.01;26.29;99768.84;4413172;32;20004;-69
2022/05/25 08:49:10;;;;;;;;;;;;;;;29.56;26.75;99764.25;4412790;32;20286;-70
2022/05/25 08:51:55;;;;;;;;;;;;;;;29.69;26.51;99778.44;4406325;32;20297;-70
2022/05/25 08:54:21;;;;;;;;;;;;;;;30.63;25.53;99771.94;4410067;32;19969;-70
2022/05/25 08:56:49;;;;;;;;;;;;;;;30.84;25.20;99760.62;4407033;32;19961;-70
2022/05/25 08:59:22;;;;;;;;;;;;;;;30.68;25.40;99775.97;4409875;32;20674;-69
2022/05/25 09:02:08;;;;;;;;;;;;;;;30.54;25.46;99777.69;4398427;32;20013;-70
2022/05/25 09:04:39;;;;;;;;;;;;;;;30.95;25.13;99756.38;4412170;32;20056;-70
2022/05/25 09:09:49;;;;;;;;;;;;;;;31.73;24.37;99777.19;3945303;32;15723479;-69
2022/05/25 09:12:35;;;;;;;;;;;;;;;31.73;24.37;99777.19;4426813;32;20450;-69
2022/05/25 09:15:03;;;;;;;;;;;;;;;32.10;23.97;99774.97;4427538;32;20036;-69
2022/05/25 09:17:32;;;;;;;;;;;;;;;31.74;24.35;99784.53;4424615;32;20014;-69
2022/05/25 09:19:59;;;;;;;;;;;;;;;32.47;23.70;99782.19;4427173;32;20008;-70
2022/05/25 09:22:31;;;;;;;;;;;;;;;32.68;23.37;99800.53;4426067;32;20053;-69
2022/05/25 09:24:59;;;;;;;;;;;;;;;32.24;24.09;99811.00;4424355;32;20004;-69
2022/05/25 09:27:29;;;;;;;;;;;;;;;32.20;24.17;99796.09;4430508;32;19982;-69
2022/05/25 09:29:56;;;;;;;;;;;;;;;32.35;24.32;99796.59;4430850;32;20328;-69
2022/05/25 09:32:41;;;;;;;;;;;;;;;32.66;23.77;99811.28;4429580;32;20436;-69
2022/05/25 09:35:09;;;;;;;;;;;;;;;33.04;23.22;99796.66;4426658;32;20048;-69
2022/05/25 09:37:38;;;;;;;;;;;;;;;32.88;23.46;99807.12;4425616;32;20003;-69
2022/05/25 09:40:08;;;;;;;;;;;;;;;32.33;23.99;99799.31;4427654;32;19956;-69
2022/05/25 09:42:35;;;;;;;;;;;;;;;31.94;24.70;99806.50;4425660;32;20356;-69
2022/05/25 09:45:00;;;;;;;;;;;;;;;33.34;23.20;99803.91;4428355;32;19973;-69
2022/05/25 09:47:35;;;;;;;;;;;;;;;33.31;23.45;99799.31;4427250;32;19993;-69
2022/05/25 09:50:01;;;;;;;;;;;;;;;32.97;23.83;99808.50;4425832;32;20056;-70
2022/05/25 09:52:38;;;;;;;;;;;;;;;33.90;22.96;99805.78;4426404;32;19995;-69
2022/05/25 09:55:08;;;;;;;;;;;;;;;34.28;22.54;99793.84;4427613;32;19989;-70
2022/05/25 09:57:37;;;;;;;;;;;;;;;33.69;23.19;99808.69;4416264;32;19987;-69
2022/05/25 10:00:09;;;;;;;;;;;;;;;33.62;23.50;99815.47;4425758;32;20194;-69
2022/05/25 10:02:37;;;;;;;;;;;;;;;33.15;24.16;99827.31;4427546;32;20038;-69
2022/05/25 10:05:11;;;;;;;;;;;;;;;33.40;23.99;99821.84;4426908;32;19987;-69
2022/05/25 10:07:38;;;;;;;;;;;;;;;32.43;25.20;99808.84;4426024;32;20000;-68
2022/05/25 10:10:06;;;;;;;;;;;;;;;33.34;25.05;99812.66;4423824;32;20036;-70
2022/05/25 10:12:34;;;;;;;;;;;;;;;33.87;25.17;99830.41;4425293;32;20104;-71
2022/05/25 10:15:02;;;;;;;;;;;;;;;32.72;26.29;99811.75;4426675;32;20772;-69
2022/05/25 10:17:30;;;;;;;;;;;;;;;32.75;26.76;99821.38;4426478;32;19992;-69
2022/05/25 10:19:57;;;;;;;;;;;;;;;33.53;26.80;99818.44;4419148;32;19985;-69
2022/05/25 10:22:46;;;;;;;;;;;;;;;33.76;26.13;99818.59;4414015;32;20509;-69
2022/05/25 10:25:23;;;;;;;;;;;;;;;32.44;26.57;99806.72;4414502;32;19993;-70
2022/05/25 10:27:49;;;;;;;;;;;;;;;33.29;25.96;99817.44;4414152;32;19954;-70
2022/05/25 10:38:29;;;;;;;;;;;;;;;33.16;25.54;99817.94;4414578;32;20058;-70
2022/05/25 10:40:55;;;;;;;;;;;;;;;32.98;25.32;99810.81;4426439;32;20334;-70
2022/05/25 10:43:29;;;;;;;;;;;;;;;33.80;24.65;99819.66;4427324;32;19973;-69
2022/05/25 10:45:56;;;;;;;;;;;;;;;33.04;25.20;99827.97;4428419;32;20006;-69
2022/05/25 10:48:41;;;;;;;;;;;;;;;34.10;24.30;99829.78;4429141;32;20024;-69
2022/05/25 10:51:10;;;;;;;;;;;;;;;34.41;23.83;99815.16;4427686;32;20380;-69
2022/05/25 10:59:10;;;;;;;;;;;;;;;33.68;26.04;99812.97;3957254;31;15717669;-68
2022/05/25 11:01:56;;;;;;;;;;;;;;;33.68;26.04;99812.97;4433030;32;19992;-67
2022/05/25 11:07:07;;;;;;;;;;;;;;;33.01;27.63;99826.28;3942910;32;15732599;-69
2022/05/25 11:09:53;;;;;;;;;;;;;;;33.01;27.63;99826.28;4419478;32;20000;-68
2022/05/25 11:15:28;;;;;;;;;;;;;;;34.02;26.28;99803.72;3946368;32;15722349;-68
2022/05/25 11:20:38;;;;;;;;;;;;;;;34.25;25.34;99818.47;3940838;32;15770364;-69
2022/05/25 11:23:16;;;;;;;;;;;;;;;34.25;25.34;99818.47;4419220;32;20024;-68
2022/05/25 11:31:01;;;;;;;;;;;;;;;34.39;24.68;99809.94;3945478;32;15721431;-69
2022/05/25 11:36:15;;;;;;;;;;;;;;;35.37;23.25;99812.78;3946898;32;15723613;-70
2022/05/25 11:41:30;;;;;;;;;;;;;;;34.81;23.59;99814.91;3953418;31;15719304;-69
2022/05/25 11:44:03;;;;;;;;;;;;;;;35.99;21.93;99817.44;4425848;32;20022;-69
2022/05/25 11:46:34;;;;;;;;;;;;;;;35.36;22.51;99811.22;4421340;32;20560;-70
2022/05/25 11:51:42;;;;;;;;;;;;;;;35.07;22.78;99840.03;3932594;32;15723078;-68
2022/05/25 11:54:28;;;;;;;;;;;;;;;35.07;22.78;99840.03;4417026;32;19957;-69
2022/05/25 11:57:15;;;;;;;;;;;;;;;35.53;22.49;99828.44;4418550;32;20236;-68
2022/05/25 12:00:00;;;;;;;;;;;;;;;34.77;24.68;99853.41;4417352;32;20032;-69
2022/05/25 12:02:47;;;;;;;;;;;;;;;33.94;25.74;99849.09;4415405;32;20069;-69
2022/05/25 12:05:32;;;;;;;;;;;;;;;32.72;27.23;99860.50;4418249;32;20327;-69
2022/05/25 12:08:18;;;;;;;;;;;;;;;32.84;27.09;99852.66;4409352;32;19981;-69
2022/05/25 12:10:45;;;;;;;;;;;;;;;32.25;28.15;99856.97;4417316;32;20464;-68
2022/05/25 12:13:21;;;;;;;;;;;;;;;31.91;28.55;99868.09;4416247;32;20202;-68
2022/05/25 12:15:53;;;;;;;;;;;;;;;32.08;28.21;99868.72;4420928;32;19979;-70
2022/05/25 12:18:38;;;;;;;;;;;;;;;32.81;27.50;99874.28;4405820;32;20281;-70
2022/05/25 12:23:43;;;;;;;;;;;;;;;33.63;25.28;99892.09;3928362;32;15722396;-69
2022/05/25 12:26:14;;;;;;;;;;;;;;;33.63;25.28;99892.09;4405907;32;19962;-70
2022/05/25 12:28:41;;;;;;;;;;;;;;;33.74;25.47;99882.66;4406525;32;20383;-69
2022/05/25 12:31:12;;;;;;;;;;;;;;;35.21;23.38;99899.44;4406112;32;20421;-69
2022/05/25 12:33:40;;;;;;;;;;;;;;;35.10;22.73;99900.19;4402131;32;20002;-70
2022/05/25 12:36:08;;;;;;;;;;;;;;;35.12;22.68;99897.41;4401845;32;20003;-70
2022/05/25 12:38:34;;;;;;;;;;;;;;;35.14;22.80;99912.16;4390664;32;20041;-70
2022/05/25 12:41:21;;;;;;;;;;;;;;;35.17;22.18;99917.53;4403273;32;20004;-69
2022/05/25 12:49:35;;;;;;;;;;;;;;;33.84;22.93;99927.94;4422315;32;19965;-69
2022/05/25 12:52:01;;;;;;;;;;;;;;;34.07;22.61;99930.31;4423297;32;19957;-69
2022/05/25 12:54:30;;;;;;;;;;;;;;;34.26;22.06;99925.13;4421486;32;19997;-69
2022/05/25 12:57:00;;;;;;;;;;;;;;;34.47;21.70;99938.28;4422542;32;20648;-69
2022/05/25 13:02:22;;;;;;;;;;;;;;;34.55;21.88;99954.19;3945378;32;15722603;-70
2022/05/25 13:10:21;;;;;;;;;;;;;;;35.50;20.22;99952.63;3948467;31;15738986;-72
2022/05/25 13:12:49;;;;;;;;;;;;;;;35.50;20.22;99952.63;4430646;32;20038;-71
2022/05/25 13:17:53;;;;;;;;;;;;;;;35.68;19.69;99936.22;3945370;32;15725462;-71
2022/05/25 13:23:06;;;;;;;;;;;;;;;38.21;17.20;99958.09;3957556;32;15722546;-70
2022/05/25 13:30:52;;;;;;;;;;;;;;;38.49;16.30;99970.63;3946722;32;15729637;-72
2022/05/25 13:35:57;;;;;;;;;;;;;;;36.38;17.69;99981.00;3945104;32;15721578;-69
2022/05/25 13:38:43;;;;;;;;;;;;;;;37.86;16.80;99981.84;4420803;32;20386;-69
2022/05/25 13:41:14;;;;;;;;;;;;;;;37.19;17.20;99978.63;4423165;32;20574;-71
2022/05/25 13:43:45;;;;;;;;;;;;;;;37.58;16.85;99988.28;4421161;32;20491;-71
2022/05/25 13:46:13;;;;;;;;;;;;;;;36.49;17.74;99989.78;4419642;32;20306;-71
2022/05/25 13:48:50;;;;;;;;;;;;;;;35.21;18.92;99990.12;4418155;32;20457;-70
2022/05/25 13:51:18;;;;;;;;;;;;;;;35.71;18.56;99988.41;4421385;32;19989;-69
2022/05/25 13:53:44;;;;;;;;;;;;;;;35.83;18.45;100003.88;4419342;32;20001;-69
2022/05/25 13:56:12;;;;;;;;;;;;;;;36.27;18.39;99996.38;4421810;32;20397;-70
2022/05/25 13:58:42;;;;;;;;;;;;;;;36.16;18.40;99992.06;4414324;32;19957;-69
2022/05/25 14:01:08;;;;;;;;;;;;;;;36.19;17.97;100029.63;4419719;32;20388;-69
2022/05/25 14:03:34;;;;;;;;;;;;;;;35.95;18.01;100001.72;4418459;32;19962;-69
2022/05/25 14:06:01;;;;;;;;;;;;;;;35.96;18.03;100008.34;4419536;32;20068;-69
2022/05/25 14:11:12;;;;;;;;;;;;;;;34.20;19.96;99994.03;3966271;32;15728525;-72
2022/05/25 14:13:40;;;;;;;;;;;;;;;34.38;19.88;100007.03;4446818;32;19964;-71
2022/05/25 14:16:22;;;;;;;;;;;;;;;34.22;20.16;100002.94;4449565;32;20168;-72
2022/05/25 14:18:50;;;;;;;;;;;;;;;35.05;19.43;100022.00;4448830;32;20428;-73
2022/05/25 14:21:35;;;;;;;;;;;;;;;33.94;20.45;100027.19;4449420;32;20499;-71
2022/05/25 14:26:54;;;;;;;;;;;;;;;34.29;20.55;100034.13;3944122;32;15724565;-70
2022/05/25 14:29:22;;;;;;;;;;;;;;;34.29;20.55;100034.13;4416250;32;20027;-69
2022/05/25 14:31:49;;;;;;;;;;;;;;;35.87;18.83;100039.28;4417738;32;19973;-69
2022/05/25 14:34:18;;;;;;;;;;;;;;;35.33;19.34;100041.50;4418545;32;20000;-70
2022/05/25 14:36:45;;;;;;;;;;;;;;;36.04;18.95;100050.63;4416388;32;19997;-70
2022/05/25 14:39:13;;;;;;;;;;;;;;;35.60;19.72;100044.78;4401170;32;20394;-70
2022/05/25 14:44:39;;;;;;;;;;;;;;;36.60;18.06;100044.72;3963200;31;15717406;-69
2022/05/25 14:47:24;;;;;;;;;;;;;;;36.60;18.06;100044.72;4447359;32;20278;-69